Time;durP1;ratioP1;P1;durP2;ratioP2;P2;SDS_P1;SDS_P2;PMS_P1;PMS_P2;Temp;Humidity;BMP_temperature;BMP_pressure;BME280_temperature;BME280_humidity;BME280_pressure;Samples;Min_cycle;Max_cycle;Signal;HPM_P1;HPM_P2
2022/09/22 00:00:37;;;;;;;3.33;1.92;;;19.30;99.90;;;;;;4161968;28;20623;-76
2022/09/22 00:02:39;;;;;;;3.33;1.92;;;19.30;99.90;;;;;;4162226;28;20224;-76
2022/09/22 00:04:41;;;;;;;2.88;2.00;;;19.30;99.90;;;;;;4161732;28;20221;-75
2022/09/22 00:06:47;;;;;;;5.43;2.28;;;19.20;99.90;;;;;;4159228;28;20236;-76
2022/09/22 00:08:51;;;;;;;3.45;2.05;;;19.30;99.90;;;;;;4146092;28;20217;-75
2022/09/22 00:11:00;;;;;;;2.80;1.90;;;19.20;99.90;;;;;;4145778;28;20233;-76
2022/09/22 00:13:03;;;;;;;2.60;1.90;;;19.20;99.90;;;;;;4145660;28;20683;-75
2022/09/22 00:15:09;;;;;;;5.35;2.40;;;19.20;99.90;;;;;;4145848;28;20661;-76
2022/09/22 00:17:11;;;;;;;3.22;2.05;;;19.20;99.90;;;;;;4145953;28;20221;-76
2022/09/22 00:19:16;;;;;;;3.47;2.00;;;19.30;99.90;;;;;;4146156;28;20217;-76
2022/09/22 00:21:20;;;;;;;3.85;2.20;;;19.20;99.90;;;;;;4145330;28;20263;-76
2022/09/22 00:23:25;;;;;;;3.80;2.20;;;19.20;99.90;;;;;;4144280;28;20236;-76
2022/09/22 00:25:27;;;;;;;3.03;2.40;;;19.30;99.90;;;;;;4146045;28;20221;-76
2022/09/22 00:27:29;;;;;;;4.60;2.38;;;19.20;99.90;;;;;;4152644;28;20605;-75
2022/09/22 00:29:34;;;;;;;3.50;2.10;;;19.20;99.90;;;;;;4145606;28;20233;-76
2022/09/22 00:31:37;;;;;;;4.05;2.22;;;19.20;99.90;;;;;;4143907;28;20244;-76
2022/09/22 00:33:41;;;;;;;3.38;2.22;;;19.20;99.90;;;;;;4145630;28;20289;-76
2022/09/22 00:35:43;;;;;;;2.92;2.10;;;19.20;99.90;;;;;;4145518;28;20225;-76
2022/09/22 00:37:45;;;;;;;3.42;2.20;;;19.20;99.90;;;;;;4145816;28;20221;-76
2022/09/22 00:39:48;;;;;;;4.47;2.42;;;19.20;99.90;;;;;;4145442;28;20221;-76
2022/09/22 00:41:52;;;;;;;3.20;2.28;;;19.20;99.90;;;;;;4145403;28;20213;-76
2022/09/22 00:44:30;;;;;;;5.10;2.58;;;19.20;99.90;;;;;;4145229;28;20229;-76
2022/09/22 00:46:34;;;;;;;3.50;2.15;;;19.20;99.90;;;;;;4145336;28;20291;-75
2022/09/22 00:48:43;;;;;;;3.85;2.03;;;19.20;99.90;;;;;;4148185;28;20220;-76
2022/09/22 00:50:45;;;;;;;3.38;2.53;;;19.20;99.90;;;;;;4141924;28;20750;-75
2022/09/22 00:52:52;;;;;;;3.90;2.25;;;19.20;99.90;;;;;;4152003;28;20212;-76
2022/09/22 00:54:58;;;;;;;2.90;2.20;;;19.20;99.90;;;;;;4148860;28;20216;-76
2022/09/22 00:57:05;;;;;;;3.72;2.08;;;19.10;99.90;;;;;;4148914;28;20217;-75
2022/09/22 00:59:10;;;;;;;5.20;2.60;;;19.20;99.90;;;;;;4148839;28;20272;-76
2022/09/22 01:01:13;;;;;;;4.38;2.15;;;19.20;99.90;;;;;;4148946;28;20288;-75
2022/09/22 01:03:21;;;;;;;5.15;2.20;;;19.20;99.90;;;;;;4148749;28;20217;-75
2022/09/22 01:05:24;;;;;;;4.07;2.30;;;19.10;99.90;;;;;;4148573;28;20270;-75
2022/09/22 01:07:30;;;;;;;4.07;2.20;;;19.20;99.90;;;;;;4154709;28;20241;-76
2022/09/22 01:09:33;;;;;;;4.90;2.58;;;19.10;99.90;;;;;;4148306;28;20276;-75
2022/09/22 01:11:37;;;;;;;3.15;1.90;;;19.10;99.90;;;;;;4148167;28;20291;-76
2022/09/22 01:13:48;;;;;;;5.00;2.70;;;19.10;99.90;;;;;;4148183;28;20631;-76
2022/09/22 01:16:10;;;;;;;4.40;2.25;;;19.20;99.90;;;;;;4148154;28;20229;-76
2022/09/22 01:18:28;;;;;;;4.82;2.30;;;19.10;99.90;;;;;;4146331;28;20267;-75
2022/09/22 01:20:54;;;;;;;4.80;2.60;;;19.10;99.90;;;;;;4148150;28;20225;-76
2022/09/22 01:23:14;;;;;;;3.65;2.35;;;19.10;99.90;;;;;;4145702;28;20976;-76
2022/09/22 01:25:38;;;;;;;4.47;2.50;;;19.10;99.90;;;;;;4148058;28;20291;-76
2022/09/22 01:28:22;;;;;;;3.00;2.30;;;19.10;99.90;;;;;;4147844;28;20221;-76
2022/09/22 01:30:34;;;;;;;3.15;2.22;;;19.10;99.90;;;;;;4126982;28;20229;-75
2022/09/22 01:32:42;;;;;;;4.72;2.42;;;19.20;99.90;;;;;;4147922;28;20270;-76
2022/09/22 01:34:51;;;;;;;4.18;2.53;;;19.10;99.90;;;;;;4147806;28;20212;-75
2022/09/22 01:37:02;;;;;;;4.57;2.60;;;19.10;99.90;;;;;;4148840;28;20225;-75
2022/09/22 01:39:12;;;;;;;4.82;2.40;;;19.10;99.90;;;;;;4148028;28;20212;-76
2022/09/22 01:41:19;;;;;;;2.78;2.33;;;19.10;99.90;;;;;;4147995;28;20259;-75
2022/09/22 01:43:31;;;;;;;4.50;2.55;;;19.10;99.90;;;;;;4148042;28;20217;-76
2022/09/22 01:45:37;;;;;;;3.83;2.35;;;19.10;99.90;;;;;;4147948;28;20282;-76
2022/09/22 01:47:46;;;;;;;2.90;2.13;;;19.10;99.90;;;;;;4147622;28;20217;-75
2022/09/22 01:49:52;;;;;;;3.75;2.60;;;19.10;99.90;;;;;;4147743;28;20225;-76
2022/09/22 01:51:59;;;;;;;4.55;2.38;;;19.10;99.90;;;;;;4149787;28;20594;-75
2022/09/22 01:54:06;;;;;;;3.42;2.70;;;19.10;99.90;;;;;;4147714;28;20225;-75
2022/09/22 01:56:12;;;;;;;5.45;2.45;;;19.10;99.90;;;;;;4147814;28;20282;-75
2022/09/22 01:58:17;;;;;;;3.97;2.13;;;19.10;99.90;;;;;;4147624;28;20382;-75
2022/09/22 02:00:22;;;;;;;3.30;2.50;;;19.10;99.90;;;;;;4146875;28;20279;-76
2022/09/22 02:02:30;;;;;;;4.18;2.63;;;19.10;99.90;;;;;;4147649;28;20247;-75
2022/09/22 02:04:37;;;;;;;3.88;2.50;;;19.10;99.90;;;;;;4147522;28;20310;-76
2022/09/22 02:06:45;;;;;;;3.00;2.20;;;19.10;99.90;;;;;;4154633;28;20236;-75
2022/09/22 02:08:54;;;;;;;4.07;2.40;;;19.10;99.90;;;;;;4163939;28;20208;-75
2022/09/22 02:11:02;;;;;;;5.00;2.33;;;19.10;99.90;;;;;;4163269;28;20258;-76
2022/09/22 02:13:04;;;;;;;2.75;1.98;;;19.10;99.90;;;;;;4163538;28;20261;-76
2022/09/22 02:15:58;;;;;;;4.35;2.72;;;19.10;99.90;;;;;;4163746;28;20626;-76
2022/09/22 02:17:32;;;;;;;3.92;2.80;;;19.10;99.90;;;;;;4151719;28;20279;-76
2022/09/22 02:19:38;;;;;;;4.20;2.67;;;19.10;99.90;;;;;;4163850;28;20279;-75
2022/09/22 02:21:43;;;;;;;2.67;2.22;;;19.00;99.90;;;;;;4156920;28;20255;-76
2022/09/22 02:23:48;;;;;;;4.60;2.50;;;19.10;99.90;;;;;;4163802;28;20224;-76
2022/09/22 02:25:51;;;;;;;6.50;2.83;;;19.00;99.90;;;;;;4163390;28;20271;-75
2022/09/22 02:27:55;;;;;;;2.95;2.30;;;19.00;99.90;;;;;;4163697;28;20216;-76
2022/09/22 02:30:01;;;;;;;2.95;2.22;;;19.10;99.90;;;;;;4163657;28;20665;-76
2022/09/22 02:32:08;;;;;;;4.07;2.50;;;19.00;99.90;;;;;;4163126;28;20244;-75
2022/09/22 02:34:12;;;;;;;4.40;2.38;;;19.00;99.90;;;;;;4163127;28;20266;-76
2022/09/22 02:36:40;;;;;;;4.90;2.40;;;19.00;99.90;;;;;;4163090;28;20266;-76
2022/09/22 02:38:48;;;;;;;5.35;2.50;;;19.00;99.90;;;;;;4162862;28;20734;-75
2022/09/22 02:40:58;;;;;;;4.35;2.70;;;19.10;99.90;;;;;;4163026;28;20755;-76
2022/09/22 02:43:06;;;;;;;3.50;2.40;;;19.00;99.90;;;;;;4162727;28;20212;-76
2022/09/22 02:45:15;;;;;;;3.83;2.60;;;19.00;99.90;;;;;;4163348;28;20220;-75
2022/09/22 02:47:24;;;;;;;4.43;2.38;;;19.00;99.90;;;;;;4162245;28;20482;-75
2022/09/22 02:49:28;;;;;;;6.28;2.75;;;19.00;99.90;;;;;;4162871;28;20220;-76
2022/09/22 02:51:31;;;;;;;4.85;2.70;;;19.00;99.90;;;;;;4162313;28;20642;-75
2022/09/22 02:53:35;;;;;;;3.92;2.30;;;19.00;99.90;;;;;;4162832;28;20730;-75
2022/09/22 02:55:38;;;;;;;4.03;2.80;;;19.00;99.90;;;;;;4150902;28;20251;-75
2022/09/22 02:57:42;;;;;;;4.70;2.65;;;19.00;99.90;;;;;;4162814;28;20290;-75
2022/09/22 02:59:44;;;;;;;4.18;2.55;;;19.00;99.90;;;;;;4163018;28;20263;-75
2022/09/22 03:01:47;;;;;;;3.75;2.50;;;19.00;99.90;;;;;;4162671;28;20592;-75
2022/09/22 03:03:49;;;;;;;3.80;2.67;;;19.00;99.90;;;;;;4163190;28;20660;-76
2022/09/22 03:05:53;;;;;;;3.15;2.60;;;19.00;99.90;;;;;;4162772;28;20232;-75
2022/09/22 03:07:55;;;;;;;4.10;2.20;;;19.00;99.90;;;;;;4162906;28;20220;-76
2022/09/22 03:09:57;;;;;;;3.78;2.72;;;19.00;99.90;;;;;;4162526;28;20631;-75
2022/09/22 03:12:00;;;;;;;4.05;2.47;;;19.00;99.90;;;;;;4162776;28;20282;-75
2022/09/22 03:14:02;;;;;;;4.28;2.70;;;18.90;99.90;;;;;;4162831;28;20224;-76
2022/09/22 03:16:05;;;;;;;3.85;2.40;;;19.00;99.90;;;;;;4162383;28;20324;-76
2022/09/22 03:18:07;;;;;;;3.85;2.80;;;19.00;99.90;;;;;;4161867;28;20208;-75
2022/09/22 03:20:11;;;;;;;3.67;2.55;;;19.00;99.90;;;;;;4163211;28;20212;-76
2022/09/22 03:22:15;;;;;;;3.88;2.67;;;19.00;99.90;;;;;;4155787;28;20209;-76
2022/09/22 03:24:17;;;;;;;4.63;2.17;;;19.00;99.90;;;;;;4162845;28;20216;-75
2022/09/22 03:26:20;;;;;;;3.58;2.35;;;19.00;99.90;;;;;;4152122;28;20265;-75
2022/09/22 03:28:22;;;;;;;5.10;2.88;;;19.00;99.90;;;;;;4162707;28;20295;-76
2022/09/22 03:30:24;;;;;;;3.67;2.60;;;19.00;99.90;;;;;;4162714;28;20220;-76
2022/09/22 03:32:26;;;;;;;3.92;2.80;;;18.90;99.90;;;;;;4162325;28;20983;-75
2022/09/22 03:34:29;;;;;;;3.20;2.35;;;19.00;99.90;;;;;;4162197;28;20211;-76
2022/09/22 03:36:31;;;;;;;2.88;2.45;;;18.90;99.90;;;;;;4162270;28;20220;-76
2022/09/22 03:38:35;;;;;;;4.20;2.45;;;19.00;99.90;;;;;;4162104;28;20270;-76
2022/09/22 03:40:37;;;;;;;4.32;2.45;;;18.90;99.90;;;;;;4162195;28;20271;-75
2022/09/22 03:42:39;;;;;;;3.85;2.75;;;19.00;99.90;;;;;;4162092;28;20661;-76
2022/09/22 03:44:42;;;;;;;3.60;2.50;;;19.00;99.90;;;;;;4162595;28;20221;-75
2022/09/22 03:46:44;;;;;;;4.25;2.58;;;18.90;99.90;;;;;;4162211;28;20213;-76
2022/09/22 03:48:47;;;;;;;3.70;2.15;;;18.90;99.90;;;;;;4162479;28;20630;-76
2022/09/22 03:50:49;;;;;;;4.38;2.40;;;19.00;99.90;;;;;;4161987;28;20212;-75
2022/09/22 03:52:51;;;;;;;4.70;2.70;;;18.90;99.90;;;;;;4161651;28;20240;-75
2022/09/22 03:54:55;;;;;;;2.97;2.25;;;19.00;99.90;;;;;;4161783;28;20266;-76
2022/09/22 03:56:58;;;;;;;4.50;2.55;;;18.90;99.90;;;;;;4162167;28;20258;-76
2022/09/22 03:59:00;;;;;;;3.90;2.50;;;18.90;99.90;;;;;;4162431;28;20225;-76
2022/09/22 04:01:03;;;;;;;4.65;2.50;;;18.90;99.90;;;;;;4161836;28;20626;-76
2022/09/22 04:03:05;;;;;;;4.53;2.50;;;18.90;99.90;;;;;;4162112;28;20224;-75
2022/09/22 04:05:09;;;;;;;3.80;2.55;;;18.90;99.90;;;;;;4161795;28;20262;-76
2022/09/22 04:07:11;;;;;;;5.25;2.70;;;18.90;99.90;;;;;;4161472;28;20633;-76
2022/09/22 04:09:16;;;;;;;5.20;2.92;;;18.90;99.90;;;;;;4162379;28;20623;-76
2022/09/22 04:11:20;;;;;;;3.75;2.35;;;18.90;99.90;;;;;;4161714;28;20727;-75
2022/09/22 04:13:22;;;;;;;3.40;2.42;;;18.90;99.90;;;;;;4160307;28;20278;-76
2022/09/22 04:15:24;;;;;;;4.63;2.50;;;18.90;99.90;;;;;;4161922;28;20266;-76
2022/09/22 04:17:27;;;;;;;3.92;2.80;;;18.90;99.90;;;;;;4161717;28;20236;-75
2022/09/22 04:19:33;;;;;;;3.40;2.38;;;18.90;99.90;;;;;;4161624;28;20267;-75
2022/09/22 04:21:35;;;;;;;4.18;2.22;;;18.90;99.90;;;;;;4154172;28;20216;-76
2022/09/22 04:23:37;;;;;;;3.97;2.58;;;18.90;99.90;;;;;;4161565;28;20247;-76
2022/09/22 04:25:40;;;;;;;3.10;2.30;;;18.90;99.90;;;;;;4151018;28;20224;-76
2022/09/22 04:27:43;;;;;;;4.55;2.75;;;18.90;99.90;;;;;;4161615;28;20258;-75
2022/09/22 04:29:45;;;;;;;3.65;2.20;;;18.80;99.90;;;;;;4161342;28;20274;-76
2022/09/22 04:31:48;;;;;;;4.32;2.72;;;18.80;99.90;;;;;;4161794;28;20220;-75
2022/09/22 04:33:50;;;;;;;4.05;2.28;;;18.80;99.90;;;;;;4151371;28;20352;-75
2022/09/22 04:35:52;;;;;;;3.83;2.50;;;18.90;99.90;;;;;;4161716;28;20228;-75
2022/09/22 04:37:55;;;;;;;3.83;2.42;;;18.90;99.90;;;;;;4161782;28;20282;-75
2022/09/22 04:39:58;;;;;;;2.88;2.35;;;18.90;99.90;;;;;;4161698;28;20217;-76
2022/09/22 04:42:01;;;;;;;5.53;2.78;;;18.80;99.90;;;;;;4161663;28;20294;-76
2022/09/22 04:44:05;;;;;;;2.75;2.45;;;18.80;99.90;;;;;;4161548;28;20262;-75
2022/09/22 04:46:07;;;;;;;2.72;2.22;;;18.80;99.90;;;;;;4161300;28;20212;-76
2022/09/22 04:48:09;;;;;;;3.45;2.58;;;18.80;99.90;;;;;;4161838;28;20216;-75
2022/09/22 04:50:11;;;;;;;5.20;2.40;;;18.80;99.90;;;;;;4161361;28;20212;-76
2022/09/22 04:52:14;;;;;;;3.10;2.20;;;18.80;99.90;;;;;;4161937;28;20270;-75
2022/09/22 04:54:16;;;;;;;3.55;2.55;;;18.80;99.90;;;;;;4161864;28;20220;-76
2022/09/22 04:56:18;;;;;;;3.15;2.65;;;18.80;99.90;;;;;;4161415;28;20662;-76
2022/09/22 04:58:21;;;;;;;3.70;2.58;;;18.80;99.90;;;;;;4161192;28;20274;-76
2022/09/22 05:00:26;;;;;;;3.42;2.45;;;18.80;99.90;;;;;;4161475;28;20224;-76
2022/09/22 05:02:29;;;;;;;3.40;2.55;;;18.80;99.90;;;;;;4161385;28;20216;-75
2022/09/22 05:04:31;;;;;;;4.65;2.47;;;18.80;99.90;;;;;;4161615;28;20213;-76
2022/09/22 05:06:33;;;;;;;3.17;2.63;;;18.80;99.90;;;;;;4161620;28;20243;-75
2022/09/22 05:08:35;;;;;;;5.10;2.88;;;18.80;99.90;;;;;;4161600;28;20751;-76
2022/09/22 05:10:38;;;;;;;4.10;2.72;;;18.80;99.90;;;;;;4161858;28;20220;-76
2022/09/22 05:12:40;;;;;;;3.78;2.35;;;18.80;99.90;;;;;;4161700;28;20822;-76
2022/09/22 05:14:43;;;;;;;3.92;2.60;;;18.80;99.90;;;;;;4161421;28;20275;-76
2022/09/22 05:16:46;;;;;;;5.07;2.92;;;18.80;99.90;;;;;;4161869;28;20221;-76
2022/09/22 05:18:49;;;;;;;4.50;2.40;;;18.80;99.90;;;;;;4161803;28;20216;-76
2022/09/22 05:20:51;;;;;;;3.15;2.25;;;18.80;99.90;;;;;;4159911;28;20266;-76
2022/09/22 05:22:53;;;;;;;3.83;2.28;;;18.70;99.90;;;;;;4161593;28;20250;-75
2022/09/22 05:24:56;;;;;;;3.47;2.58;;;18.80;99.90;;;;;;4161319;28;20232;-76
2022/09/22 05:26:58;;;;;;;5.40;2.53;;;18.80;99.90;;;;;;4161748;28;20216;-75
2022/09/22 05:29:01;;;;;;;4.30;2.65;;;18.80;99.90;;;;;;4160742;28;20224;-75
2022/09/22 05:31:03;;;;;;;3.63;2.40;;;18.80;99.90;;;;;;4161792;28;20687;-76
2022/09/22 05:33:07;;;;;;;3.10;2.53;;;18.80;99.90;;;;;;4161285;28;20689;-76
2022/09/22 05:35:09;;;;;;;3.63;2.13;;;18.80;99.90;;;;;;4163621;28;20220;-75
2022/09/22 05:37:12;;;;;;;4.07;2.70;;;18.80;99.90;;;;;;4164537;28;20225;-76
2022/09/22 05:39:14;;;;;;;3.53;2.42;;;18.80;99.90;;;;;;4161700;28;20274;-76
2022/09/22 05:41:16;;;;;;;3.75;2.60;;;18.70;99.90;;;;;;4164324;28;20228;-76
2022/09/22 05:43:19;;;;;;;3.97;2.60;;;18.80;99.90;;;;;;4164628;28;20220;-76
2022/09/22 05:45:21;;;;;;;3.97;2.63;;;18.80;99.90;;;;;;4164307;28;20664;-75
2022/09/22 05:47:24;;;;;;;4.30;2.67;;;18.70;99.90;;;;;;4160301;28;20271;-76
2022/09/22 05:49:28;;;;;;;3.42;2.28;;;18.70;99.90;;;;;;4153542;28;20225;-76
2022/09/22 05:51:30;;;;;;;4.57;2.75;;;18.80;99.90;;;;;;4155408;28;20281;-74
2022/09/22 05:53:32;;;;;;;3.88;2.65;;;18.70;99.90;;;;;;4164444;28;20228;-74
2022/09/22 05:55:35;;;;;;;4.25;2.88;;;18.80;99.90;;;;;;4161423;28;20899;-74
2022/09/22 05:57:38;;;;;;;4.00;3.08;;;18.70;99.90;;;;;;4153798;28;20224;-74
2022/09/22 05:59:40;;;;;;;5.43;2.58;;;18.80;99.90;;;;;;4154014;28;20723;-74
2022/09/22 06:01:42;;;;;;;4.65;2.95;;;18.70;99.90;;;;;;4155260;28;20266;-74
2022/09/22 06:03:45;;;;;;;3.45;2.50;;;18.80;99.90;;;;;;4164662;28;20266;-74
2022/09/22 06:05:48;;;;;;;2.95;2.28;;;18.70;99.90;;;;;;4157561;28;20225;-74
2022/09/22 06:07:59;;;;;;;4.35;2.60;;;18.70;99.90;;;;;;4149636;28;20278;-74
2022/09/22 06:10:01;;;;;;;3.65;2.40;;;18.70;99.90;;;;;;4155092;28;20241;-74
2022/09/22 06:12:07;;;;;;;3.70;2.85;;;18.70;99.90;;;;;;4161836;28;20632;-74
2022/09/22 06:14:09;;;;;;;3.92;2.70;;;18.70;99.90;;;;;;4155576;28;20295;-74
2022/09/22 06:16:12;;;;;;;3.53;2.75;;;18.70;99.90;;;;;;4158053;28;20251;-73
2022/09/22 06:18:16;;;;;;;3.63;2.55;;;18.70;99.90;;;;;;4148769;28;20271;-74
2022/09/22 06:20:19;;;;;;;3.97;2.53;;;18.70;99.90;;;;;;4154492;28;20216;-74
2022/09/22 06:22:23;;;;;;;3.00;2.65;;;18.70;99.90;;;;;;4147707;28;20278;-74
2022/09/22 06:24:25;;;;;;;5.25;2.63;;;18.70;99.90;;;;;;4151206;28;20255;-74
2022/09/22 06:26:27;;;;;;;4.75;2.80;;;18.70;99.90;;;;;;4148258;28;20681;-74
2022/09/22 06:28:30;;;;;;;3.28;2.83;;;18.70;99.90;;;;;;4151875;28;20326;-74
2022/09/22 06:30:32;;;;;;;4.50;2.35;;;18.70;99.90;;;;;;4156479;28;20220;-72
2022/09/22 06:32:37;;;;;;;3.28;2.60;;;18.70;99.90;;;;;;4148872;28;20650;-74
2022/09/22 06:34:40;;;;;;;4.03;2.42;;;18.70;99.90;;;;;;4153343;28;20284;-74
2022/09/22 06:36:44;;;;;;;3.67;2.47;;;18.70;99.90;;;;;;4156704;28;20263;-74
2022/09/22 06:38:47;;;;;;;3.17;2.53;;;18.70;99.90;;;;;;4161298;28;20221;-74
2022/09/22 06:40:50;;;;;;;3.90;2.58;;;18.70;99.90;;;;;;4147862;28;20229;-74
2022/09/22 06:42:57;;;;;;;3.83;2.60;;;18.70;99.90;;;;;;4154589;28;20223;-74
2022/09/22 06:45:01;;;;;;;3.72;2.53;;;18.70;99.90;;;;;;4138743;28;20573;-74
2022/09/22 06:47:05;;;;;;;4.30;2.40;;;18.70;99.90;;;;;;4149796;28;20267;-73
2022/09/22 06:49:07;;;;;;;4.22;2.67;;;18.70;99.90;;;;;;4147737;28;20221;-74
2022/09/22 06:51:10;;;;;;;4.07;2.60;;;18.70;99.90;;;;;;4148270;28;20221;-73
2022/09/22 06:53:12;;;;;;;4.20;2.83;;;18.70;99.90;;;;;;4150964;28;20213;-75
2022/09/22 06:55:19;;;;;;;3.58;2.63;;;18.70;99.90;;;;;;4143968;28;20338;-75
2022/09/22 06:57:21;;;;;;;4.35;2.80;;;18.70;99.90;;;;;;4136194;28;20698;-75
2022/09/22 06:59:24;;;;;;;5.05;3.45;;;18.70;99.90;;;;;;4135080;28;20221;-75
2022/09/22 07:01:29;;;;;;;4.55;2.75;;;18.70;99.90;;;;;;4140726;28;20209;-75
2022/09/22 07:03:37;;;;;;;5.32;2.70;;;18.80;99.90;;;;;;4147370;28;20255;-75
2022/09/22 07:05:39;;;;;;;3.58;2.50;;;18.80;99.90;;;;;;4137073;28;20225;-74
2022/09/22 07:07:41;;;;;;;5.18;2.70;;;18.80;99.90;;;;;;4146225;28;20236;-74
2022/09/22 07:09:45;;;;;;;5.30;2.95;;;18.90;99.90;;;;;;4147977;28;20659;-74
2022/09/22 07:11:49;;;;;;;7.32;2.58;;;18.90;99.90;;;;;;4145896;28;20225;-75
2022/09/22 07:13:53;;;;;;;4.35;2.55;;;18.90;99.90;;;;;;4152518;28;20220;-75
2022/09/22 07:16:00;;;;;;;4.47;2.53;;;19.00;99.90;;;;;;4146395;28;20276;-75
2022/09/22 07:18:03;;;;;;;6.35;3.20;;;19.00;99.90;;;;;;4145477;28;20624;-76
2022/09/22 07:20:06;;;;;;;6.50;2.80;;;19.00;99.90;;;;;;4145931;28;20284;-76
2022/09/22 07:22:09;;;;;;;4.45;2.53;;;19.00;99.90;;;;;;4143446;28;20225;-74
2022/09/22 07:24:11;;;;;;;4.05;2.80;;;19.00;99.90;;;;;;4147620;28;20266;-74
2022/09/22 07:26:16;;;;;;;5.78;2.67;;;19.10;99.90;;;;;;4142086;28;20213;-75
2022/09/22 07:28:21;;;;;;;6.30;2.50;;;19.10;99.90;;;;;;4138896;28;20256;-74
2022/09/22 07:30:25;;;;;;;4.20;2.72;;;19.20;99.90;;;;;;4141444;28;22953;-76
2022/09/22 07:32:34;;;;;;;3.80;2.83;;;19.10;99.90;;;;;;4141677;28;20224;-73
2022/09/22 07:34:37;;;;;;;6.93;3.00;;;19.10;99.90;;;;;;4137006;28;20229;-74
2022/09/22 07:36:39;;;;;;;5.88;3.10;;;19.20;99.90;;;;;;4148450;28;20665;-74
2022/09/22 07:38:48;;;;;;;4.78;2.63;;;19.20;99.90;;;;;;4146636;28;20283;-74
2022/09/22 07:40:53;;;;;;;4.57;2.65;;;19.20;99.90;;;;;;4134858;28;20271;-72
2022/09/22 07:42:55;;;;;;;5.93;2.80;;;19.20;99.90;;;;;;4142167;28;20288;-74
2022/09/22 07:45:14;;;;;;;3.42;2.50;;;19.30;99.90;;;;;;4146302;28;20213;-73
2022/09/22 07:48:34;;;;;;;4.38;2.30;;;19.30;99.90;;;;;;4144756;28;20220;-74
2022/09/22 07:49:40;;;;;;;5.18;2.55;;;19.30;99.90;;;;;;4144350;28;20276;-74
2022/09/22 07:51:42;;;;;;;5.00;2.92;;;19.30;99.90;;;;;;4150994;28;20213;-73
2022/09/22 07:53:46;;;;;;;5.00;2.40;;;19.30;99.90;;;;;;4133057;28;20630;-78
2022/09/22 07:55:48;;;;;;;4.90;2.97;;;19.30;99.90;;;;;;4137097;28;20314;-74
2022/09/22 07:57:55;;;;;;;5.93;2.80;;;19.30;99.90;;;;;;4137970;28;20221;-73
2022/09/22 07:59:59;;;;;;;4.15;2.90;;;19.30;99.90;;;;;;4139385;28;20707;-73
2022/09/22 08:02:03;;;;;;;3.95;2.60;;;19.30;99.90;;;;;;4145004;28;20271;-74
2022/09/22 08:04:05;;;;;;;3.40;2.70;;;19.40;99.90;;;;;;4139488;28;20905;-74
2022/09/22 08:06:10;;;;;;;5.38;2.72;;;19.40;99.90;;;;;;4141394;28;20236;-74
2022/09/22 08:08:12;;;;;;;3.85;2.42;;;19.40;99.90;;;;;;4142986;28;20253;-74
2022/09/22 08:10:15;;;;;;;7.07;2.72;;;19.40;99.90;;;;;;4140517;28;20221;-75
2022/09/22 08:12:17;;;;;;;6.57;2.83;;;19.40;99.90;;;;;;4138759;28;20218;-73
2022/09/22 08:14:22;;;;;;;4.45;2.58;;;19.40;99.90;;;;;;4129283;28;20225;-74
2022/09/22 08:16:28;;;;;;;4.13;2.50;;;19.40;99.90;;;;;;4140949;28;20229;-74
2022/09/22 08:18:30;;;;;;;4.32;2.75;;;19.40;99.90;;;;;;4138697;28;20726;-74
2022/09/22 08:20:33;;;;;;;6.00;2.63;;;19.50;99.90;;;;;;4140889;28;20263;-75
2022/09/22 08:22:35;;;;;;;8.07;2.70;;;19.40;99.90;;;;;;4139555;28;20279;-74
2022/09/22 08:24:38;;;;;;;3.50;2.30;;;19.40;99.90;;;;;;4138693;28;20233;-74
2022/09/22 08:26:42;;;;;;;3.33;2.60;;;19.50;99.90;;;;;;4142882;28;20228;-76
2022/09/22 08:28:45;;;;;;;4.72;2.42;;;19.40;99.90;;;;;;4140036;28;20225;-76
2022/09/22 08:30:48;;;;;;;4.47;2.55;;;19.40;99.90;;;;;;4140331;28;20270;-73
2022/09/22 08:32:52;;;;;;;4.38;2.65;;;19.40;99.90;;;;;;4118922;28;20280;-74
2022/09/22 08:34:56;;;;;;;3.53;2.63;;;19.50;99.90;;;;;;4123276;28;20636;-75
2022/09/22 08:36:59;;;;;;;5.50;2.67;;;19.50;99.90;;;;;;4119331;28;20220;-74
2022/09/22 08:39:02;;;;;;;5.15;2.72;;;19.50;99.90;;;;;;4116342;28;20376;-75
2022/09/22 08:41:17;;;;;;;3.47;2.20;;;19.50;99.90;;;;;;4119171;28;20274;-75
2022/09/22 08:43:20;;;;;;;5.88;2.72;;;19.50;99.90;;;;;;4120548;28;20944;-74
2022/09/22 08:45:30;;;;;;;8.75;2.80;;;19.50;99.90;;;;;;4125209;28;20224;-76
2022/09/22 08:52:27;;;;;;;5.15;2.50;;;19.50;99.90;;;;;;4119521;28;20209;-76
2022/09/22 08:54:32;;;;;;;5.95;2.47;;;19.60;99.90;;;;;;4119850;28;20225;-76
2022/09/22 08:56:40;;;;;;;4.43;2.40;;;19.60;99.90;;;;;;4121547;28;20271;-75
2022/09/22 08:58:51;;;;;;;4.68;2.90;;;19.60;99.90;;;;;;4125156;28;20279;-75
2022/09/22 09:01:02;;;;;;;5.00;2.45;;;19.60;99.90;;;;;;4143987;28;20586;-75
2022/09/22 09:03:22;;;;;;;4.82;2.70;;;19.70;99.90;;;;;;4141017;28;20225;-77
2022/09/22 09:05:50;;;;;;;5.78;2.80;;;19.60;99.90;;;;;;4141801;28;20662;-75
2022/09/22 09:08:00;;;;;;;5.90;2.50;;;19.60;99.90;;;;;;4131749;28;20323;-74
2022/09/22 09:10:14;;;;;;;3.97;2.70;;;19.70;99.90;;;;;;4139626;28;20216;-75
2022/09/22 09:12:30;;;;;;;4.55;2.72;;;19.70;99.90;;;;;;4142681;28;20379;-76
2022/09/22 09:14:57;;;;;;;4.13;2.40;;;19.60;99.90;;;;;;4138037;28;20268;-75
2022/09/22 09:17:04;;;;;;;5.80;2.35;;;19.60;99.90;;;;;;4120604;28;20221;-76
2022/09/22 09:19:17;;;;;;;4.35;2.67;;;19.60;99.90;;;;;;4132785;28;20213;-76
2022/09/22 09:21:24;;;;;;;4.50;2.50;;;19.70;99.90;;;;;;4143943;28;20276;-75
2022/09/22 09:23:35;;;;;;;3.67;2.20;;;19.70;99.90;;;;;;4143696;28;20293;-76
2022/09/22 09:25:40;;;;;;;3.80;2.25;;;19.70;99.90;;;;;;4142074;28;20244;-74
2022/09/22 09:27:45;;;;;;;4.75;2.63;;;19.80;99.90;;;;;;4140294;28;20276;-75
2022/09/22 09:29:59;;;;;;;4.90;2.42;;;19.80;99.90;;;;;;4131036;28;20260;-75
2022/09/22 09:32:08;;;;;;;4.80;2.20;;;19.80;99.90;;;;;;4140977;28;20338;-74
2022/09/22 09:34:16;;;;;;;3.95;2.33;;;19.80;99.90;;;;;;4137793;28;20347;-74
2022/09/22 09:36:23;;;;;;;4.82;2.78;;;19.80;99.90;;;;;;4136273;28;20689;-73
2022/09/22 09:38:31;;;;;;;2.85;2.17;;;19.80;99.90;;;;;;4139190;28;20217;-74
2022/09/22 09:40:33;;;;;;;4.35;2.42;;;19.80;99.90;;;;;;4136314;28;20228;-74
2022/09/22 09:42:36;;;;;;;2.72;2.03;;;19.80;99.90;;;;;;4138694;28;20245;-74
2022/09/22 09:44:40;;;;;;;4.13;2.42;;;19.80;99.90;;;;;;4141187;28;20221;-74
2022/09/22 09:46:50;;;;;;;2.35;1.70;;;19.80;99.90;;;;;;4138695;28;20216;-75
2022/09/22 09:49:04;;;;;;;4.68;1.98;;;19.80;99.90;;;;;;4135190;28;20220;-74
2022/09/22 09:51:12;;;;;;;3.38;1.90;;;19.80;99.90;;;;;;4132518;28;20276;-75
2022/09/22 09:53:30;;;;;;;4.18;2.20;;;19.80;99.90;;;;;;4139929;28;20272;-77
2022/09/22 09:55:34;;;;;;;3.50;2.20;;;19.80;99.90;;;;;;4142511;28;20253;-77
2022/09/22 09:58:05;;;;;;;5.18;2.25;;;19.80;99.90;;;;;;4138584;28;20305;-77
2022/09/22 10:00:32;;;;;;;5.03;2.17;;;19.80;99.90;;;;;;4137533;28;20286;-76
2022/09/22 10:02:37;;;;;;;2.65;2.10;;;19.80;99.90;;;;;;4144203;28;20279;-75
2022/09/22 10:04:40;;;;;;;2.92;2.03;;;19.80;99.90;;;;;;4146228;28;20665;-76
2022/09/22 10:06:42;;;;;;;4.13;2.30;;;19.80;99.90;;;;;;4141381;28;20222;-76
2022/09/22 10:08:50;;;;;;;8.40;2.42;;;19.80;99.90;;;;;;4136433;28;20659;-76
2022/09/22 10:10:57;;;;;;;2.63;2.15;;;19.90;99.90;;;;;;4130304;28;20213;-74
2022/09/22 10:13:29;;;;;;;5.15;2.20;;;19.90;99.90;;;;;;4137938;28;20280;-74
2022/09/22 10:15:33;;;;;;;3.08;2.25;;;19.80;99.90;;;;;;4136084;28;20295;-75
2022/09/22 10:17:41;;;;;;;3.25;2.55;;;19.90;99.90;;;;;;4143260;28;20217;-75
2022/09/22 10:19:44;;;;;;;2.85;1.92;;;19.90;99.90;;;;;;4137247;28;20304;-76
2022/09/22 10:21:47;;;;;;;3.17;2.10;;;19.90;99.90;;;;;;4140196;28;20217;-75
2022/09/22 10:23:51;;;;;;;4.35;2.25;;;19.90;99.90;;;;;;4143110;28;20268;-75
2022/09/22 10:26:14;;;;;;;4.47;2.30;;;19.90;99.90;;;;;;4130924;28;20217;-76
2022/09/22 10:28:18;;;;;;;5.03;2.20;;;20.00;99.90;;;;;;4116760;28;20878;-77
2022/09/22 10:30:23;;;;;;;4.18;2.10;;;19.90;99.90;;;;;;4123837;28;20284;-78
2022/09/22 10:32:26;;;;;;;4.63;1.80;;;19.90;99.90;;;;;;4120469;28;20221;-78
2022/09/22 10:34:31;;;;;;;6.68;2.55;;;19.90;99.90;;;;;;4124466;28;20250;-77
2022/09/22 10:36:36;;;;;;;5.30;2.13;;;19.90;99.90;;;;;;4143715;28;20244;-76
2022/09/22 10:38:40;;;;;;;4.28;2.13;;;19.90;99.90;;;;;;4142669;28;20216;-77
2022/09/22 10:40:47;;;;;;;5.35;2.33;;;20.00;99.90;;;;;;4139257;28;20729;-75
2022/09/22 10:42:52;;;;;;;3.88;2.50;;;20.00;99.90;;;;;;4142978;28;20213;-77
2022/09/22 10:45:00;;;;;;;2.85;1.98;;;20.00;99.90;;;;;;4144848;28;20217;-77
2022/09/22 10:47:25;;;;;;;3.67;2.17;;;20.00;99.90;;;;;;4144475;28;20217;-76
2022/09/22 10:49:46;;;;;;;5.60;2.00;;;20.00;99.90;;;;;;4148201;28;20272;-75
2022/09/22 10:52:08;;;;;;;3.45;2.03;;;19.90;99.90;;;;;;4137807;28;20221;-75
2022/09/22 10:54:34;;;;;;;6.82;2.10;;;20.00;99.90;;;;;;4138765;28;20217;-76
2022/09/22 10:56:39;;;;;;;3.97;2.20;;;19.90;99.90;;;;;;4130708;28;20238;-75
2022/09/22 10:59:17;;;;;;;3.20;2.17;;;19.90;99.90;;;;;;4133793;28;20249;-74
2022/09/22 11:01:34;;;;;;;3.20;1.92;;;19.90;99.90;;;;;;4123616;28;20221;-75